Аэропорт: Сары-Арка. Караганда

ICAO: UAKK

METAR:
2019/03/26 13:00
UAKK 261300Z 13004MPS 080V150 CAVOK 05/01 Q1018 R23/0///70 NOSIG RMK QFE716/0955
METAR:
2019/03/26 12:18
TAF UAKK 261100Z 2612/2712 18006MPS 9999 SCT030 BKN100 TX07/2710Z TN02/2701Z 
      TEMPO 2615/2618 16009MPS 5000 -SHRA SCT015 BKN030CB 
      TEMPO 2618/2703 VRB02MPS 2000 SHRA BR BKN005 OVC015CB 
      BECMG 2703/2706 05006MPS